createdAt,value
2018-08-03T00:00:08.957Z,100652.28
2018-08-03T00:02:38.117Z,100648.63
2018-08-03T00:05:07.899Z,100640.64
2018-08-03T00:07:36.821Z,100644.66
2018-08-03T00:10:06.970Z,100640.28
2018-08-03T00:12:36.105Z,100645.06
2018-08-03T00:15:06.015Z,100636.14
2018-08-03T00:17:35.293Z,100637.19
2018-08-03T00:20:05.489Z,100633.35
2018-08-03T00:22:34.677Z,100630.28
2018-08-03T00:25:03.709Z,100626.07
2018-08-03T00:27:32.668Z,100627.48
2018-08-03T00:30:01.592Z,100630.88
2018-08-03T00:32:30.537Z,100631.98
2018-08-03T00:34:59.549Z,100635.62
2018-08-03T00:37:28.492Z,100632.77
2018-08-03T00:39:57.617Z,100634.14
2018-08-03T00:42:26.604Z,100633.79
2018-08-03T00:44:55.678Z,100641.42
2018-08-03T00:47:24.589Z,100642.34
2018-08-03T00:49:53.940Z,100657.03
2018-08-03T00:52:22.929Z,100656.25
2018-08-03T00:54:51.952Z,100652.15
2018-08-03T00:57:20.948Z,100654.22
2018-08-03T00:59:50.344Z,100644.09
2018-08-03T01:02:19.525Z,100643.55
2018-08-03T01:04:48.439Z,100645.16
2018-08-03T01:07:17.447Z,100646.50
2018-08-03T01:09:46.435Z,100651.33
2018-08-03T01:12:15.389Z,100652.66
2018-08-03T01:14:44.340Z,100652.66
2018-08-03T01:17:13.327Z,100654.72
2018-08-03T01:19:42.266Z,100648.69
2018-08-03T01:22:11.223Z,100649.93
2018-08-03T01:24:40.152Z,100649.14
2018-08-03T01:27:09.091Z,100649.59
2018-08-03T01:29:38.035Z,100645.29
2018-08-03T01:32:06.995Z,100641.19
2018-08-03T01:34:35.903Z,100636.31
2018-08-03T01:37:04.957Z,100632.22
2018-08-03T01:39:33.896Z,100631.76
2018-08-03T01:42:02.833Z,100635.06
2018-08-03T01:44:31.836Z,100637.55
2018-08-03T01:47:00.774Z,100631.52
2018-08-03T01:49:29.704Z,100624.36
2018-08-03T01:51:58.717Z,100629.23
2018-08-03T01:54:27.636Z,100632.09
2018-08-03T01:56:56.598Z,100631.18
2018-08-03T01:59:25.499Z,100630.39
2018-08-03T02:01:54.406Z,100626.09
2018-08-03T02:04:23.339Z,100629.50
2018-08-03T02:06:52.258Z,100627.47
2018-08-03T02:09:21.231Z,100623.83
2018-08-03T02:11:50.188Z,100623.62
2018-08-03T02:14:19.116Z,100622.68
2018-08-03T02:16:48.032Z,100618.16
2018-08-03T02:19:17.006Z,100613.03
2018-08-03T02:21:45.930Z,100617.69
2018-08-03T02:24:14.980Z,100621.78
2018-08-03T02:26:43.895Z,100624.77
2018-08-03T02:29:12.846Z,100623.61
2018-08-03T02:31:41.785Z,100625.64
2018-08-03T02:34:11.401Z,100634.20
2018-08-03T02:36:40.404Z,100643.29
2018-08-03T02:39:11.043Z,100632.35
2018-08-03T02:41:40.227Z,100637.81
2018-08-03T02:44:09.707Z,100639.64
2018-08-03T02:49:06.791Z,100647.03
2018-08-03T02:51:35.717Z,100645.65
2018-08-03T02:54:04.669Z,100644.06
2018-08-03T02:56:33.605Z,100635.88
2018-08-03T02:59:02.548Z,100630.63
2018-08-03T03:01:31.470Z,100640.55
2018-08-03T03:04:00.401Z,100642.94
2018-08-03T03:06:29.311Z,100655.09
2018-08-03T03:08:58.239Z,100649.06
2018-08-03T03:11:27.160Z,100655.00
2018-08-03T03:13:56.101Z,100655.00
2018-08-03T03:16:25.248Z,100649.64
2018-08-03T03:18:54.197Z,100656.02
2018-08-03T03:21:23.154Z,100655.31
2018-08-03T03:23:52.070Z,100653.16
2018-08-03T03:26:21.011Z,100658.85
2018-08-03T03:28:49.932Z,100655.20
2018-08-03T03:31:18.828Z,100656.36
2018-08-03T03:33:47.893Z,100656.69
2018-08-03T03:36:16.868Z,100660.69
2018-08-03T03:38:45.820Z,100661.34
2018-08-03T03:41:14.765Z,100657.25
2018-08-03T03:43:43.766Z,100651.91
2018-08-03T03:46:12.680Z,100654.54
2018-08-03T03:48:41.619Z,100661.12
2018-08-03T03:51:10.577Z,100665.45
2018-08-03T03:53:39.562Z,100662.03
2018-08-03T03:56:08.479Z,100665.11
2018-08-03T03:58:37.452Z,100671.13
2018-08-03T04:01:06.572Z,100674.56
2018-08-03T04:03:35.519Z,100676.03
2018-08-03T04:06:04.452Z,100676.61
2018-08-03T04:08:33.368Z,100676.13
2018-08-03T04:11:02.470Z,100686.95
2018-08-03T04:13:31.403Z,100685.47
2018-08-03T04:16:00.357Z,100686.03
2018-08-03T04:18:29.284Z,100686.03
2018-08-03T04:20:59.399Z,100683.65
2018-08-03T04:23:28.849Z,100689.56
2018-08-03T04:25:57.834Z,100685.69
2018-08-03T04:28:26.824Z,100682.62
2018-08-03T04:30:55.789Z,100678.18
2018-08-03T04:33:24.717Z,100682.30
2018-08-03T04:35:53.772Z,100682.39
2018-08-03T04:38:22.713Z,100686.93
2018-08-03T04:40:51.696Z,100688.64
2018-08-03T04:43:20.639Z,100689.67
2018-08-03T04:45:49.593Z,100678.05
2018-08-03T04:48:18.548Z,100683.27
2018-08-03T04:50:47.504Z,100687.25
2018-08-03T04:53:16.401Z,100687.45
2018-08-03T04:55:45.335Z,100696.56
2018-08-03T04:58:14.321Z,100690.64
2018-08-03T05:00:43.294Z,100693.09
2018-08-03T05:03:12.207Z,100694.31
2018-08-03T05:05:41.173Z,100691.53
2018-08-03T05:08:10.184Z,100688.98
2018-08-03T05:10:39.186Z,100689.07
2018-08-03T05:13:08.175Z,100693.88
2018-08-03T05:15:37.142Z,100706.39
2018-08-03T05:18:06.440Z,100706.12
2018-08-03T05:20:35.396Z,100705.83
2018-08-03T05:23:04.338Z,100708.05
2018-08-03T05:25:33.281Z,100704.83
2018-08-03T05:28:02.481Z,100709.02
2018-08-03T05:30:31.502Z,100713.67
2018-08-03T05:33:00.550Z,100713.88
2018-08-03T05:35:29.523Z,100712.28
2018-08-03T05:37:58.454Z,100718.61
2018-08-03T05:40:27.434Z,100712.34
2018-08-03T05:42:56.392Z,100717.93
2018-08-03T05:45:25.510Z,100722.14
2018-08-03T05:47:54.511Z,100722.03
2018-08-03T05:50:23.505Z,100721.75
2018-08-03T05:52:52.507Z,100720.06
2018-08-03T05:55:21.513Z,100712.76
2018-08-03T05:57:50.468Z,100709.59
2018-08-03T06:00:19.674Z,100710.70
2018-08-03T06:02:48.795Z,100705.11
2018-08-03T06:05:17.998Z,100710.81
2018-08-03T06:07:46.926Z,100708.04
2018-08-03T06:10:15.855Z,100708.77
2018-08-03T06:12:44.791Z,100712.16
2018-08-03T06:15:13.778Z,100708.82
2018-08-03T06:17:42.765Z,100706.88
2018-08-03T06:20:13.203Z,100704.33
2018-08-03T06:22:42.495Z,100700.12
2018-08-03T06:25:11.751Z,100696.98
2018-08-03T06:27:40.666Z,100702.48
2018-08-03T06:30:11.303Z,100707.77
2018-08-03T06:32:40.241Z,100711.90
2018-08-03T06:35:09.223Z,100712.69
2018-08-03T06:37:38.156Z,100707.09
2018-08-03T06:40:07.110Z,100707.16
2018-08-03T06:42:36.047Z,100706.42
2018-08-03T06:45:05.244Z,100708.69
2018-08-03T06:47:34.165Z,100706.45
2018-08-03T06:50:03.135Z,100708.36
2018-08-03T06:52:32.059Z,100704.11
2018-08-03T06:55:01.067Z,100709.89
2018-08-03T06:57:30.066Z,100713.69
2018-08-03T06:59:58.994Z,100708.85
2018-08-03T07:02:28.007Z,100714.34
2018-08-03T07:04:56.956Z,100711.36
2018-08-03T07:07:25.982Z,100698.84
2018-08-03T07:09:54.935Z,100712.33
2018-08-03T07:12:23.937Z,100715.50
2018-08-03T07:14:53.525Z,100714.03
2018-08-03T07:17:22.432Z,100704.47
2018-08-03T07:19:51.470Z,100705.88
2018-08-03T07:22:20.494Z,100709.23
2018-08-03T07:24:49.545Z,100705.67
2018-08-03T07:27:18.491Z,100704.28
2018-08-03T07:29:47.404Z,100706.83
2018-08-03T07:32:16.312Z,100704.14
2018-08-03T07:34:45.261Z,100700.77
2018-08-03T07:37:14.206Z,100703.36
2018-08-03T07:39:43.169Z,100700.96
2018-08-03T07:42:12.093Z,100700.23
2018-08-03T07:44:41.058Z,100701.77
2018-08-03T07:47:10.383Z,100698.62
2018-08-03T07:49:39.305Z,100693.77
2018-08-03T07:52:08.454Z,100690.50
2018-08-03T07:54:37.516Z,100693.18
2018-08-03T07:57:06.574Z,100697.39
2018-08-03T07:59:35.504Z,100698.44
2018-08-03T08:02:04.461Z,100697.55
2018-08-03T08:04:33.398Z,100701.80
2018-08-03T08:07:02.336Z,100699.44
2018-08-03T08:09:31.309Z,100693.75
2018-08-03T08:12:00.230Z,100687.14
2018-08-03T08:14:29.152Z,100690.11
2018-08-03T08:16:58.249Z,100693.25
2018-08-03T08:19:27.131Z,100689.70
2018-08-03T08:21:56.066Z,100693.17
2018-08-03T08:24:25.279Z,100693.70
2018-08-03T08:26:54.394Z,100694.50
2018-08-03T08:29:23.476Z,100697.70
2018-08-03T08:31:52.431Z,100700.01
2018-08-03T08:34:21.352Z,100690.31
2018-08-03T08:36:50.445Z,100691.07
2018-08-03T08:39:19.328Z,100684.06
2018-08-03T08:41:48.269Z,100682.91
2018-08-03T08:44:17.254Z,100676.63
2018-08-03T08:46:46.213Z,100683.45
2018-08-03T08:49:15.126Z,100684.09
2018-08-03T08:51:44.074Z,100676.59
2018-08-03T08:54:13.052Z,100683.56
2018-08-03T08:56:42.004Z,100672.61
2018-08-03T08:59:10.932Z,100670.84
2018-08-03T09:01:39.881Z,100673.94
2018-08-03T09:04:08.825Z,100675.96
2018-08-03T09:06:37.854Z,100673.20
2018-08-03T09:09:09.628Z,100669.66
2018-08-03T09:11:39.217Z,100670.41
2018-08-03T09:14:08.141Z,100668.21
2018-08-03T09:16:37.098Z,100666.78
2018-08-03T09:19:06.050Z,100658.30
2018-08-03T09:21:34.974Z,100661.88
2018-08-03T09:24:03.935Z,100655.61
2018-08-03T09:26:33.492Z,100655.96
2018-08-03T09:29:02.565Z,100649.52
2018-08-03T09:31:31.489Z,100652.11
2018-08-03T09:34:00.468Z,100642.06
2018-08-03T09:36:29.453Z,100643.17
2018-08-03T09:38:58.339Z,100636.94
2018-08-03T09:41:27.257Z,100640.77
2018-08-03T09:43:56.210Z,100636.13
2018-08-03T09:46:25.296Z,100636.13
2018-08-03T09:48:54.213Z,100634.42
2018-08-03T09:51:23.194Z,100629.87
2018-08-03T09:53:52.385Z,100629.88
2018-08-03T09:56:21.319Z,100631.41
2018-08-03T09:58:50.285Z,100624.93
2018-08-03T10:01:19.211Z,100626.95
2018-08-03T10:03:48.143Z,100623.27
2018-08-03T10:06:17.108Z,100618.74
2018-08-03T10:08:46.052Z,100618.80
2018-08-03T10:11:15.860Z,100611.16
2018-08-03T10:13:45.023Z,100610.81
2018-08-03T10:16:13.946Z,100600.28
2018-08-03T10:18:42.964Z,100607.87
2018-08-03T10:21:12.044Z,100611.75
2018-08-03T10:23:41.070Z,100601.62
2018-08-03T10:26:10.025Z,100594.95
2018-08-03T10:28:38.982Z,100590.14
2018-08-03T10:31:11.890Z,100580.23
2018-08-03T10:33:40.908Z,100585.41
2018-08-03T10:36:10.440Z,100582.07
2018-08-03T10:38:39.992Z,100579.66
2018-08-03T10:41:08.980Z,100579.63
2018-08-03T10:43:38.051Z,100580.22
2018-08-03T10:46:06.991Z,100568.79
2018-08-03T10:48:36.045Z,100570.14
2018-08-03T10:51:05.010Z,100567.13
2018-08-03T10:53:33.944Z,100567.56
2018-08-03T10:56:02.919Z,100558.66
2018-08-03T10:58:32.036Z,100558.11
2018-08-03T11:01:00.987Z,100548.69
2018-08-03T11:03:30.080Z,100556.49
2018-08-03T11:05:59.102Z,100550.29
2018-08-03T11:08:28.066Z,100549.30
2018-08-03T11:10:57.085Z,100543.70
2018-08-03T11:13:26.146Z,100540.95
2018-08-03T11:15:55.075Z,100543.26
2018-08-03T11:18:24.047Z,100545.33
2018-08-03T11:20:53.058Z,100532.36
2018-08-03T11:23:22.029Z,100519.23
2018-08-03T11:25:51.027Z,100528.27
2018-08-03T11:28:20.273Z,100526.48
2018-08-03T11:30:49.198Z,100514.48
2018-08-03T11:33:18.596Z,100515.23
2018-08-03T11:35:47.656Z,100519.38
2018-08-03T11:38:16.543Z,100524.13
2018-08-03T11:40:45.593Z,100513.97
2018-08-03T11:43:14.532Z,100514.17
2018-08-03T11:45:43.494Z,100505.13
2018-08-03T11:48:12.419Z,100502.06
2018-08-03T11:50:41.454Z,100502.32
2018-08-03T11:53:10.644Z,100511.56
2018-08-03T12:07:06.042Z,100470.34
2018-08-03T12:09:34.961Z,100474.90
2018-08-03T12:12:03.904Z,100478.78
2018-08-03T12:14:32.880Z,100482.25
2018-08-03T12:17:01.845Z,100481.66
2018-08-03T12:19:30.838Z,100483.91
2018-08-03T12:21:59.774Z,100479.77
2018-08-03T12:24:28.756Z,100485.80
2018-08-03T12:26:57.704Z,100479.58
2018-08-03T12:29:26.712Z,100466.05
2018-08-03T12:31:55.644Z,100458.74
2018-08-03T12:34:24.593Z,100454.17
2018-08-03T12:36:53.527Z,100455.15
2018-08-03T12:39:22.573Z,100452.88
2018-08-03T12:41:51.675Z,100455.84
2018-08-03T12:44:20.670Z,100457.75
2018-08-03T12:46:49.598Z,100446.92
2018-08-03T12:49:18.556Z,100448.22
2018-08-03T12:51:47.588Z,100445.38
2018-08-03T12:54:16.505Z,100446.36
2018-08-03T12:56:45.636Z,100445.53
2018-08-03T12:59:14.972Z,100439.22
2018-08-03T13:01:44.093Z,100438.16
2018-08-03T13:04:13.157Z,100425.54
2018-08-03T13:06:42.467Z,100423.36
2018-08-03T13:09:11.578Z,100421.08
2018-08-03T13:11:41.150Z,100416.19
2018-08-03T13:14:10.090Z,100417.09
2018-08-03T13:16:39.886Z,100418.66
2018-08-03T13:19:08.940Z,100406.27
2018-08-03T13:21:39.668Z,100402.34
2018-08-03T13:24:08.607Z,100404.21
2018-08-03T13:26:37.599Z,100400.58
2018-08-03T13:29:06.587Z,100398.56
2018-08-03T13:31:35.586Z,100400.84
2018-08-03T13:34:04.674Z,100392.77
2018-08-03T13:36:33.687Z,100394.15
2018-08-03T13:39:11.331Z,100393.19
2018-08-03T13:41:41.299Z,100395.02
2018-08-03T13:44:11.340Z,100384.75
2018-08-03T13:46:40.383Z,100387.18
2018-08-03T13:49:09.701Z,100388.62
2018-08-03T13:51:38.738Z,100385.05
2018-08-03T13:54:07.745Z,100378.82
2018-08-03T13:56:36.768Z,100375.31
2018-08-03T13:59:06.079Z,100376.34
2018-08-03T14:01:43.744Z,100375.34
2018-08-03T14:04:12.707Z,100374.64
2018-08-03T14:06:41.609Z,100370.98
2018-08-03T14:09:10.522Z,100364.98
2018-08-03T14:11:39.462Z,100372.16
2018-08-03T14:14:08.391Z,100374.99
2018-08-03T14:16:37.378Z,100371.64
2018-08-03T14:19:06.321Z,100363.84
2018-08-03T14:21:35.258Z,100358.91
2018-08-03T14:24:04.191Z,100352.20
2018-08-03T14:26:33.106Z,100356.23
2018-08-03T14:29:02.049Z,100348.23
2018-08-03T14:31:31.073Z,100341.56
2018-08-03T14:33:59.903Z,100342.37
2018-08-03T14:36:28.868Z,100336.31
2018-08-03T14:38:57.796Z,100334.06
2018-08-03T14:41:26.699Z,100329.59
2018-08-03T14:43:55.723Z,100326.05
2018-08-03T14:46:24.766Z,100320.23
2018-08-03T14:48:54.050Z,100314.98
2018-08-03T14:51:22.996Z,100315.35
2018-08-03T14:53:51.914Z,100311.96
2018-08-03T14:56:20.872Z,100311.09
2018-08-03T14:58:49.843Z,100311.33
2018-08-03T15:01:18.797Z,100305.26
2018-08-03T15:03:47.781Z,100300.84
2018-08-03T15:06:16.757Z,100311.05
2018-08-03T15:08:45.871Z,100304.77
2018-08-03T15:11:14.846Z,100304.84
2018-08-03T15:13:43.857Z,100300.24
2018-08-03T15:16:12.812Z,100298.71
2018-08-03T15:18:41.801Z,100297.51
2018-08-03T15:21:10.753Z,100300.43
2018-08-03T15:23:39.688Z,100295.33
2018-08-03T15:26:08.634Z,100290.11
2018-08-03T15:28:37.592Z,100292.78
2018-08-03T15:31:06.572Z,100293.59
2018-08-03T15:33:35.529Z,100294.05
2018-08-03T15:36:04.474Z,100294.28
2018-08-03T15:38:33.505Z,100289.47
2018-08-03T15:41:02.473Z,100279.95
2018-08-03T15:43:31.432Z,100284.80
2018-08-03T15:46:00.347Z,100281.47
2018-08-03T15:48:29.339Z,100284.92
2018-08-03T15:50:58.316Z,100283.77
2018-08-03T15:53:27.344Z,100280.80
2018-08-03T15:55:56.373Z,100282.66
2018-08-03T15:58:25.477Z,100281.88
2018-08-03T16:00:54.499Z,100276.84
2018-08-03T16:03:23.437Z,100275.27
2018-08-03T16:05:52.393Z,100279.61
2018-08-03T16:08:21.363Z,100272.54
2018-08-03T16:10:50.409Z,100267.25
2018-08-03T16:13:19.341Z,100261.99
2018-08-03T16:15:48.268Z,100264.56
2018-08-03T16:18:17.196Z,100266.23
2018-08-03T16:20:46.211Z,100261.75
2018-08-03T16:23:15.154Z,100258.78
2018-08-03T16:25:44.126Z,100259.00
2018-08-03T16:28:13.042Z,100258.23
2018-08-03T16:30:42.046Z,100265.48
2018-08-03T16:33:11.013Z,100267.53
2018-08-03T16:35:39.958Z,100265.03
2018-08-03T16:38:08.924Z,100262.05
2018-08-03T16:40:38.235Z,100261.61
2018-08-03T16:43:07.200Z,100258.02
2018-08-03T16:45:36.197Z,100262.96
2018-08-03T16:48:05.288Z,100258.56
2018-08-03T16:50:34.232Z,100261.50
2018-08-03T16:53:03.169Z,100263.17
2018-08-03T16:55:32.188Z,100262.76
2018-08-03T16:58:01.108Z,100264.92
2018-08-03T17:00:30.088Z,100265.98
2018-08-03T17:02:59.217Z,100269.16
2018-08-03T17:05:28.148Z,100262.14
2018-08-03T17:07:57.100Z,100259.48
2018-08-03T17:10:26.093Z,100258.67
2018-08-03T17:12:55.069Z,100264.77
2018-08-03T17:15:23.974Z,100261.37
2018-08-03T17:17:52.972Z,100256.42
2018-08-03T17:20:21.968Z,100255.13
2018-08-03T17:22:50.981Z,100257.66
2018-08-03T17:25:19.916Z,100251.66
2018-08-03T17:27:48.966Z,100251.50
2018-08-03T17:30:17.969Z,100247.76
2018-08-03T17:32:46.896Z,100244.52
2018-08-03T17:35:15.816Z,100246.86
2018-08-03T17:37:44.749Z,100240.93
2018-08-03T17:40:13.659Z,100249.08
2018-08-03T17:42:42.648Z,100239.09
2018-08-03T17:45:11.554Z,100249.37
2018-08-03T17:47:40.508Z,100247.22
2018-08-03T17:50:09.647Z,100252.91
2018-08-03T17:52:38.704Z,100260.27
2018-08-03T17:55:07.739Z,100261.84
2018-08-03T17:57:36.717Z,100257.98
2018-08-03T18:00:06.108Z,100256.41
2018-08-03T18:02:35.052Z,100260.75
2018-08-03T18:05:03.988Z,100261.30
2018-08-03T18:07:32.939Z,100265.95
2018-08-03T18:10:01.908Z,100266.32
2018-08-03T18:12:30.868Z,100269.78
2018-08-03T18:14:59.796Z,100268.14
2018-08-03T18:17:28.760Z,100271.23
2018-08-03T18:19:57.856Z,100268.87
2018-08-03T18:22:26.844Z,100267.70
2018-08-03T18:25:00.621Z,100266.56
2018-08-03T18:27:29.558Z,100266.88
2018-08-03T18:29:58.556Z,100274.75
2018-08-03T18:32:27.480Z,100269.48
2018-08-03T18:34:56.499Z,100274.58
2018-08-03T18:37:25.484Z,100271.67
2018-08-03T18:39:54.829Z,100278.55
2018-08-03T18:42:23.777Z,100277.26
2018-08-03T18:44:52.748Z,100280.66
2018-08-03T18:47:21.722Z,100276.59
2018-08-03T18:49:50.679Z,100280.03
2018-08-03T18:52:19.675Z,100288.84
2018-08-03T18:54:48.594Z,100288.34
2018-08-03T18:57:17.513Z,100290.91
2018-08-03T18:59:46.432Z,100295.73
2018-08-03T19:02:15.748Z,100290.88
2018-08-03T19:04:44.697Z,100296.86
2018-08-03T19:07:13.619Z,100301.22
2018-08-03T19:09:42.542Z,100301.47
2018-08-03T19:12:11.464Z,100306.83
2018-08-03T19:14:40.392Z,100302.53
2018-08-03T19:17:09.307Z,100309.65
2018-08-03T19:19:38.216Z,100307.42
2018-08-03T19:22:07.244Z,100311.64
2018-08-03T19:24:36.109Z,100315.30
2018-08-03T19:27:05.068Z,100314.64
2018-08-03T19:29:33.973Z,100319.55
2018-08-03T19:32:02.971Z,100312.06
2018-08-03T19:34:31.922Z,100307.95
2018-08-03T19:37:00.836Z,100309.34
2018-08-03T19:39:29.740Z,100312.38
2018-08-03T19:41:58.663Z,100311.66
2018-08-03T19:44:27.598Z,100306.36
2018-08-03T19:46:56.518Z,100317.83
2018-08-03T19:49:25.461Z,100310.58
2018-08-03T19:51:54.389Z,100314.19
2018-08-03T19:54:23.326Z,100311.42
2018-08-03T19:56:52.244Z,100314.42
2018-08-03T19:59:21.192Z,100308.94
2018-08-03T20:01:50.176Z,100310.70
2018-08-03T20:04:19.088Z,100311.72
2018-08-03T20:06:48.015Z,100312.52
2018-08-03T20:09:17.041Z,100311.95
2018-08-03T20:11:45.929Z,100311.37
2018-08-03T20:14:14.841Z,100306.48
2018-08-03T20:16:43.778Z,100314.14
2018-08-03T20:19:12.800Z,100310.01
2018-08-03T20:21:41.877Z,100311.41
2018-08-03T20:24:10.785Z,100311.99
2018-08-03T20:26:39.705Z,100314.95
2018-08-03T20:29:08.644Z,100311.00
2018-08-03T20:31:37.630Z,100315.15
2018-08-03T20:34:06.898Z,100314.37
2018-08-03T20:36:35.836Z,100320.84
2018-08-03T20:39:07.488Z,100325.19
2018-08-03T20:41:36.415Z,100319.09
2018-08-03T20:44:05.328Z,100319.70
2018-08-03T20:46:34.308Z,100319.30
2018-08-03T20:49:03.298Z,100320.27
2018-08-03T20:51:32.259Z,100322.26
2018-08-03T20:54:01.208Z,100314.36
2018-08-03T20:56:30.153Z,100324.62
2018-08-03T20:58:59.146Z,100321.64
2018-08-03T21:01:28.114Z,100316.73
2018-08-03T21:03:57.060Z,100316.14
2018-08-03T21:06:26.005Z,100314.95
2018-08-03T21:08:54.952Z,100321.27
2018-08-03T21:11:24.012Z,100320.88
2018-08-03T21:13:52.949Z,100325.58
2018-08-03T21:16:21.884Z,100325.39
2018-08-03T21:18:50.807Z,100335.44
2018-08-03T21:21:19.865Z,100335.04
2018-08-03T21:23:48.831Z,100331.70
2018-08-03T21:26:17.817Z,100332.83
2018-08-03T21:28:46.738Z,100331.84
2018-08-03T21:31:15.675Z,100332.05
2018-08-03T21:33:44.641Z,100336.75
2018-08-03T21:36:13.603Z,100337.54
2018-08-03T21:38:42.628Z,100334.97
2018-08-03T21:41:11.551Z,100338.66
2018-08-03T21:43:40.517Z,100336.09
2018-08-03T21:46:09.446Z,100339.42
2018-08-03T21:48:38.395Z,100333.30
2018-08-03T21:51:07.420Z,100331.52
2018-08-03T21:53:37.153Z,100330.47
2018-08-03T21:56:06.428Z,100333.19
2018-08-03T21:58:35.374Z,100337.88
2018-08-03T22:01:04.501Z,100337.25
2018-08-03T22:03:33.550Z,100333.05
2018-08-03T22:06:02.519Z,100328.18
2018-08-03T22:08:31.464Z,100331.53
2018-08-03T22:11:00.450Z,100332.31
2018-08-03T22:13:29.404Z,100327.21
2018-08-03T22:15:58.401Z,100324.98
2018-08-03T22:18:28.421Z,100325.17
2018-08-03T22:20:57.393Z,100323.02
2018-08-03T22:23:26.333Z,100318.03
2018-08-03T22:25:55.269Z,100324.69
2018-08-03T22:28:24.203Z,100320.92
2018-08-03T22:30:53.290Z,100319.37
2018-08-03T22:33:22.264Z,100319.37
2018-08-03T22:35:51.170Z,100324.91
2018-08-03T22:38:20.100Z,100322.12
2018-08-03T22:40:49.033Z,100322.67
2018-08-03T22:43:17.942Z,100328.99
2018-08-03T22:45:47.231Z,100323.42
2018-08-03T22:48:16.781Z,100323.55
2018-08-03T22:50:45.748Z,100332.71
2018-08-03T22:53:15.597Z,100333.44
2018-08-03T22:55:45.796Z,100331.11
2018-08-03T22:58:14.745Z,100335.59
2018-08-03T23:00:43.720Z,100338.14
2018-08-03T23:03:12.682Z,100330.81
2018-08-03T23:05:41.640Z,100329.08
2018-08-03T23:08:10.752Z,100328.73
2018-08-03T23:10:39.654Z,100326.90
2018-08-03T23:13:08.605Z,100326.15
2018-08-03T23:15:37.598Z,100323.77
2018-08-03T23:18:06.623Z,100331.44
2018-08-03T23:20:35.602Z,100327.63
2018-08-03T23:23:04.541Z,100323.43
2018-08-03T23:25:33.469Z,100322.59
2018-08-03T23:28:02.390Z,100323.73
2018-08-03T23:30:31.299Z,100322.05
2018-08-03T23:33:00.264Z,100326.08
2018-08-03T23:35:29.174Z,100321.13
2018-08-03T23:37:58.157Z,100329.06
2018-08-03T23:40:27.174Z,100323.52
2018-08-03T23:42:56.111Z,100318.95
2018-08-03T23:45:25.070Z,100327.83
2018-08-03T23:47:54.038Z,100331.84
2018-08-03T23:50:23.035Z,100328.73
2018-08-03T23:52:51.963Z,100323.67
2018-08-03T23:55:20.961Z,100327.56
2018-08-03T23:57:49.929Z,100327.61
